Time;durP1;ratioP1;P1;durP2;ratioP2;P2;SDS_P1;SDS_P2;PMS_P1;PMS_P2;Temp;Humidity;BMP_temperature;BMP_pressure;BME280_temperature;BME280_humidity;BME280_pressure;Samples;Min_cycle;Max_cycle;Signal;HPM_P1;HPM_P2
2021/01/27 00:04:58;;;;;;;4.45;2.17;;;0.30;92.50;;;;;;6189024;23;20031;-86
2021/01/27 00:10:58;;;;;;;1.88;1.40;;;0.30;92.40;;;;;;6069992;23;20017;-86
2021/01/27 00:13:24;;;;;;;5.57;2.03;;;0.30;92.00;;;;;;6047386;23;20014;-86
2021/01/27 00:15:49;;;;;;;2.90;2.10;;;0.30;91.90;;;;;;6046651;23;20034;-86
2021/01/27 00:18:20;;;;;;;10.07;2.40;;;0.30;91.70;;;;;;6153325;23;20011;-86
2021/01/27 00:20:46;;;;;;;5.20;1.77;;;0.30;91.80;;;;;;6224317;23;20055;-86
2021/01/27 00:23:12;;;;;;;3.72;1.80;;;0.30;91.90;;;;;;6224837;23;20008;-85
2021/01/27 00:25:38;;;;;;;3.08;1.85;;;0.30;92.00;;;;;;6224844;23;20095;-85
2021/01/27 00:28:05;;;;;;;2.92;1.73;;;0.30;92.00;;;;;;6223035;23;20011;-85
2021/01/27 00:30:40;;;;;;;2.65;1.58;;;0.30;91.80;;;;;;6223852;23;20359;-85
2021/01/27 00:33:07;;;;;;;4.05;2.28;;;0.30;91.70;;;;;;6223053;23;20016;-85
2021/01/27 00:35:36;;;;;;;3.88;1.77;;;0.30;91.60;;;;;;6226699;23;20000;-86
2021/01/27 00:38:28;;;;;;;3.88;1.60;;;0.30;91.70;;;;;;6223084;23;20012;-86
2021/01/27 00:40:56;;;;;;;2.65;1.60;;;0.30;91.40;;;;;;6221865;23;20008;-86
2021/01/27 00:43:23;;;;;;;3.78;2.03;;;0.30;91.40;;;;;;6225171;23;20048;-86
2021/01/27 00:45:50;;;;;;;3.95;1.67;;;0.30;91.50;;;;;;6250252;23;20000;-86
2021/01/27 00:48:16;;;;;;;7.65;2.17;;;0.30;91.70;;;;;;6222720;23;20040;-86
2021/01/27 00:50:42;;;;;;;3.25;1.77;;;0.30;91.70;;;;;;6250510;23;20396;-86
2021/01/27 00:53:07;;;;;;;2.70;1.50;;;0.30;91.70;;;;;;6226057;23;20095;-87
2021/01/27 00:55:33;;;;;;;2.53;1.40;;;0.30;91.40;;;;;;6223666;23;20011;-87
2021/01/27 00:58:00;;;;;;;2.50;1.48;;;0.30;91.40;;;;;;6223994;23;20109;-86
2021/01/27 01:00:30;;;;;;;3.13;1.20;;;0.30;91.30;;;;;;6226292;23;20031;-86
2021/01/27 01:02:56;;;;;;;3.78;1.70;;;0.30;91.20;;;;;;6227326;23;20394;-87
2021/01/27 01:05:40;;;;;;;3.53;1.48;;;0.30;90.90;;;;;;6228406;23;20000;-86
2021/01/27 01:08:08;;;;;;;4.13;1.73;;;0.30;90.80;;;;;;6225614;23;20008;-86
2021/01/27 01:10:37;;;;;;;3.75;1.75;;;0.30;91.00;;;;;;6226057;23;20087;-86
2021/01/27 01:13:05;;;;;;;6.75;1.65;;;0.30;91.30;;;;;;6225662;23;20003;-86
2021/01/27 01:15:31;;;;;;;5.32;1.55;;;0.30;91.10;;;;;;6224467;23;20309;-87
2021/01/27 01:17:57;;;;;;;3.63;1.75;;;0.30;91.10;;;;;;6259774;23;20010;-86
2021/01/27 01:20:23;;;;;;;2.58;1.50;;;0.20;91.40;;;;;;6237182;23;20007;-87
2021/01/27 01:22:52;;;;;;;3.15;1.40;;;0.20;91.60;;;;;;6229432;23;20004;-86
2021/01/27 01:25:19;;;;;;;2.78;1.40;;;0.20;92.10;;;;;;6228696;23;20553;-87
2021/01/27 01:27:45;;;;;;;3.83;1.60;;;0.20;92.00;;;;;;6228273;23;20031;-86
2021/01/27 01:30:11;;;;;;;3.53;1.63;;;0.10;92.00;;;;;;6226768;23;20004;-84
2021/01/27 01:32:37;;;;;;;5.47;1.77;;;0.10;92.00;;;;;;6227441;23;20050;-85
2021/01/27 01:35:03;;;;;;;2.70;1.38;;;0.10;92.00;;;;;;6228229;23;20000;-85
2021/01/27 01:37:29;;;;;;;2.65;1.52;;;0.10;92.10;;;;;;6229013;23;19996;-85
2021/01/27 01:39:54;;;;;;;4.10;1.52;;;0.00;92.40;;;;;;6227873;23;20030;-84
2021/01/27 01:42:20;;;;;;;2.45;1.52;;;0.00;92.40;;;;;;6228681;23;20054;-85
2021/01/27 01:44:46;;;;;;;6.35;1.85;;;0.00;92.10;;;;;;6229907;23;20141;-85
2021/01/27 01:47:11;;;;;;;6.10;1.92;;;0.00;92.20;;;;;;6228561;23;20057;-84
2021/01/27 01:49:37;;;;;;;3.78;1.42;;;0.00;92.40;;;;;;6228301;23;20087;-85
2021/01/27 01:52:03;;;;;;;3.00;1.70;;;0.00;92.30;;;;;;6229669;23;20325;-86
2021/01/27 01:54:49;;;;;;;4.72;1.30;;;0.00;92.40;;;;;;6228967;23;20000;-84
2021/01/27 01:57:21;;;;;;;7.82;1.75;;;0.00;92.30;;;;;;6228160;23;20024;-84
2021/01/27 01:59:55;;;;;;;3.85;1.83;;;0.00;92.00;;;;;;6234736;23;20004;-85
2021/01/27 02:02:21;;;;;;;2.15;1.23;;;0.00;92.00;;;;;;6263481;23;20281;-85
2021/01/27 02:04:56;;;;;;;3.42;1.40;;;0.00;92.20;;;;;;6235719;23;20008;-85
2021/01/27 02:07:25;;;;;;;2.78;1.58;;;0.00;92.20;;;;;;6237145;23;20011;-85
2021/01/27 02:09:51;;;;;;;5.30;2.35;;;0.00;92.20;;;;;;6233633;23;20011;-85
2021/01/27 02:12:27;;;;;;;3.88;1.67;;;0.00;91.80;;;;;;6231362;23;20530;-85
2021/01/27 02:15:05;;;;;;;3.72;1.55;;;0.00;91.70;;;;;;6234209;23;20107;-85
2021/01/27 02:17:53;;;;;;;4.38;1.90;;;0.00;91.80;;;;;;6232661;23;20000;-85
2021/01/27 02:20:28;;;;;;;3.42;1.60;;;0.00;92.20;;;;;;6221126;23;20015;-84
2021/01/27 02:23:12;;;;;;;2.67;1.52;;;0.00;92.20;;;;;;6232535;23;20030;-86
2021/01/27 02:26:13;;;;;;;3.00;1.77;;;0.00;92.10;;;;;;6233696;23;20004;-85
2021/01/27 02:29:02;;;;;;;2.60;1.50;;;0.00;92.40;;;;;;6260238;23;20004;-85
2021/01/27 02:31:34;;;;;;;5.20;1.73;;;0.00;92.20;;;;;;6236436;23;20000;-85
2021/01/27 02:34:48;;;;;;;6.72;2.03;;;0.00;92.30;;;;;;6236941;23;20051;-86
2021/01/27 02:37:18;;;;;;;2.65;1.55;;;0.00;92.10;;;;;;6214543;23;19996;-85
2021/01/27 02:39:52;;;;;;;1.75;1.10;;;0.00;91.80;;;;;;6234117;23;20031;-85
2021/01/27 02:42:33;;;;;;;2.75;1.27;;;0.00;91.60;;;;;;6244357;23;20012;-83
2021/01/27 02:45:13;;;;;;;5.13;1.83;;;;;;;;;;6245678;23;20042;-86
2021/01/27 02:47:58;;;;;;;2.95;1.65;;;-0.10;91.70;;;;;;6245712;23;20071;-87
2021/01/27 02:50:41;;;;;;;1.52;1.25;;;-0.10;91.80;;;;;;6244863;23;20398;-86
2021/01/27 02:53:25;;;;;;;3.78;1.55;;;-0.10;92.00;;;;;;6254439;23;20012;-85
2021/01/27 02:56:06;;;;;;;4.45;2.30;;;-0.10;92.10;;;;;;6227770;23;20004;-85
2021/01/27 02:58:37;;;;;;;2.63;1.50;;;-0.10;92.20;;;;;;6226479;23;19996;-85
2021/01/27 03:01:07;;;;;;;1.75;1.35;;;-0.10;92.30;;;;;;6256084;23;20274;-86
2021/01/27 03:03:41;;;;;;;7.10;1.67;;;-0.20;92.20;;;;;;6227719;23;20007;-85
2021/01/27 03:06:14;;;;;;;4.10;1.63;;;-0.30;92.20;;;;;;6226280;23;20004;-85
2021/01/27 03:08:56;;;;;;;2.90;1.55;;;-0.30;92.10;;;;;;6225861;23;20375;-85
2021/01/27 03:11:25;;;;;;;1.75;1.25;;;-0.30;92.20;;;;;;6254872;23;19992;-85
2021/01/27 03:13:51;;;;;;;5.32;1.73;;;-0.40;92.00;;;;;;6226564;23;20387;-86
2021/01/27 03:16:25;;;;;;;7.85;1.73;;;-0.40;91.70;;;;;;6226410;23;20004;-86
2021/01/27 03:19:09;;;;;;;4.82;1.80;;;-0.40;91.50;;;;;;6225919;23;20012;-86
2021/01/27 03:21:41;;;;;;;3.83;1.60;;;-0.40;91.20;;;;;;6224105;23;20004;-84
2021/01/27 03:24:20;;;;;;;1.90;1.30;;;-0.50;90.90;;;;;;6225142;23;20008;-84
2021/01/27 03:27:00;;;;;;;1.98;1.20;;;-0.50;91.00;;;;;;6223752;23;20059;-85
2021/01/27 03:29:41;;;;;;;6.18;1.50;;;-0.50;91.10;;;;;;6224265;23;20064;-85
2021/01/27 03:32:12;;;;;;;2.92;1.25;;;-0.60;90.90;;;;;;6224194;23;20375;-85
2021/01/27 03:34:41;;;;;;;2.50;1.48;;;-0.60;90.90;;;;;;6251106;23;20006;-85
2021/01/27 03:37:32;;;;;;;2.55;1.45;;;-0.60;91.10;;;;;;6250935;23;20004;-85
2021/01/27 03:40:03;;;;;;;2.78;1.13;;;-0.70;91.20;;;;;;6250579;23;20004;-85
2021/01/27 03:43:01;;;;;;;4.22;1.70;;;-0.70;91.30;;;;;;6222842;23;20035;-85
2021/01/27 03:45:30;;;;;;;3.22;1.80;;;-0.80;91.50;;;;;;6251421;23;20103;-87
2021/01/27 03:48:08;;;;;;;4.47;1.60;;;-0.80;91.70;;;;;;6249907;23;20004;-85
2021/01/27 03:50:36;;;;;;;3.05;1.67;;;-0.80;91.60;;;;;;6225284;23;20000;-85
2021/01/27 03:53:06;;;;;;;3.97;1.60;;;-0.80;91.40;;;;;;6224467;23;20008;-86
2021/01/27 03:55:35;;;;;;;3.30;1.35;;;-0.80;91.60;;;;;;6224840;23;20007;-86
2021/01/27 03:58:11;;;;;;;1.30;1.13;;;-0.90;91.80;;;;;;6250440;23;20004;-86
2021/01/27 04:00:40;;;;;;;3.20;1.45;;;-0.90;91.90;;;;;;6227767;23;20015;-86
2021/01/27 04:03:07;;;;;;;3.70;1.52;;;-1.00;92.10;;;;;;6229124;23;20329;-86
2021/01/27 04:05:33;;;;;;;4.18;1.30;;;-1.00;92.30;;;;;;6225093;23;20015;-85
2021/01/27 04:08:00;;;;;;;3.25;1.40;;;-1.00;92.30;;;;;;6224334;23;20098;-85
2021/01/27 04:10:26;;;;;;;4.68;1.50;;;-1.00;92.30;;;;;;6251026;23;20343;-86
2021/01/27 04:12:51;;;;;;;4.60;1.50;;;-1.00;92.30;;;;;;6225502;23;20000;-86
2021/01/27 04:15:17;;;;;;;2.88;1.30;;;-1.00;92.30;;;;;;6252442;23;20432;-85
2021/01/27 04:17:43;;;;;;;6.93;1.75;;;-1.00;92.40;;;;;;6225901;23;20000;-86
2021/01/27 04:20:09;;;;;;;4.05;1.15;;;-1.00;92.40;;;;;;6226135;23;20062;-87
2021/01/27 04:22:35;;;;;;;1.77;1.10;;;-1.00;92.20;;;;;;6252993;23;19993;-86
2021/01/27 04:25:01;;;;;;;1.42;1.05;;;-1.00;92.30;;;;;;6224365;23;20000;-86
2021/01/27 04:27:27;;;;;;;2.83;1.20;;;-1.00;93.70;;;;;;6225131;23;20012;-85
2021/01/27 04:29:55;;;;;;;5.10;0.98;;;-1.20;93.10;;;;;;6223471;23;20004;-86
2021/01/27 04:32:21;;;;;;;3.47;1.30;;;-1.10;92.90;;;;;;6223344;23;20077;-86
2021/01/27 04:34:47;;;;;;;1.83;1.58;;;-1.10;92.90;;;;;;6252153;23;20028;-86
2021/01/27 04:37:12;;;;;;;4.40;1.20;;;-1.20;92.80;;;;;;6250844;23;20409;-86
2021/01/27 04:39:38;;;;;;;2.75;1.13;;;-1.10;92.80;;;;;;6249881;23;20027;-86
2021/01/27 04:42:04;;;;;;;4.57;0.95;;;-1.10;92.70;;;;;;6225079;23;20008;-86
2021/01/27 04:44:33;;;;;;;2.35;1.20;;;-1.10;92.70;;;;;;6223631;23;20394;-86
2021/01/27 04:47:53;;;;;;;4.63;1.52;;;-1.10;92.50;;;;;;6222313;23;20012;-86
2021/01/27 04:50:50;;;;;;;6.97;1.88;;;-1.20;92.70;;;;;;6132042;23;20012;-86
2021/01/27 04:53:19;;;;;;;2.20;1.20;;;-1.20;92.80;;;;;;6249347;23;19996;-86
2021/01/27 04:56:06;;;;;;;7.18;1.33;;;-1.20;92.90;;;;;;6225779;23;20262;-86
2021/01/27 04:59:05;;;;;;;2.95;1.63;;;-1.20;92.90;;;;;;6225345;23;20022;-86
2021/01/27 05:02:07;;;;;;;5.68;1.35;;;-1.20;93.00;;;;;;6225510;23;20344;-87
2021/01/27 05:04:56;;;;;;;8.30;1.42;;;-1.20;93.10;;;;;;6225578;23;20435;-85
2021/01/27 05:07:36;;;;;;;5.20;1.77;;;-1.20;93.30;;;;;;6242534;22;20008;-84
2021/01/27 05:10:13;;;;;;;3.22;0.95;;;-1.20;93.40;;;;;;6226972;23;20011;-86
2021/01/27 05:12:55;;;;;;;3.03;1.17;;;-1.30;93.60;;;;;;6251192;23;20150;-86
2021/01/27 05:15:24;;;;;;;3.63;1.50;;;-1.30;93.70;;;;;;6256119;23;20064;-85
2021/01/27 05:17:53;;;;;;;3.55;1.25;;;-1.30;93.80;;;;;;6226733;23;20015;-84
2021/01/27 05:20:20;;;;;;;2.53;1.27;;;-1.30;93.80;;;;;;6225561;23;20079;-85
2021/01/27 05:22:46;;;;;;;3.17;1.50;;;-1.30;93.90;;;;;;6225640;23;20000;-84
2021/01/27 05:25:46;;;;;;;1.83;0.95;;;-1.30;94.10;;;;;;6254641;23;20313;-84
2021/01/27 05:28:19;;;;;;;4.18;1.50;;;-1.40;94.20;;;;;;6252193;22;20000;-83
2021/01/27 05:30:54;;;;;;;4.22;1.08;;;-1.40;94.40;;;;;;6224217;23;20007;-83
2021/01/27 05:33:40;;;;;;;3.67;1.10;;;-1.40;94.60;;;;;;6223076;23;20355;-83
2021/01/27 05:36:13;;;;;;;1.90;0.98;;;-1.40;94.90;;;;;;6223655;23;20000;-82
2021/01/27 05:38:39;;;;;;;1.30;0.85;;;-1.40;95.00;;;;;;6254585;23;20072;-83
2021/01/27 05:41:28;;;;;;;5.15;1.30;;;-1.40;95.20;;;;;;6253078;23;20089;-83
2021/01/27 05:44:04;;;;;;;1.27;1.00;;;-1.40;95.20;;;;;;6224788;23;20019;-83
2021/01/27 05:46:35;;;;;;;3.03;1.13;;;-1.40;95.40;;;;;;6253460;23;20004;-83
2021/01/27 05:49:02;;;;;;;3.53;1.33;;;-1.40;95.10;;;;;;6224215;23;20099;-82
2021/01/27 05:51:37;;;;;;;1.55;0.90;;;-1.40;95.10;;;;;;6250682;23;20349;-82
2021/01/27 05:54:24;;;;;;;4.03;1.15;;;-1.50;94.90;;;;;;6221961;23;19996;-83
2021/01/27 05:56:52;;;;;;;3.03;1.40;;;-1.50;94.70;;;;;;6223318;23;20321;-84
2021/01/27 05:59:22;;;;;;;1.65;1.20;;;-1.50;94.90;;;;;;6223715;23;20099;-82
2021/01/27 06:01:50;;;;;;;5.03;1.20;;;-1.50;95.00;;;;;;6223241;23;20004;-83
2021/01/27 06:04:21;;;;;;;2.47;1.02;;;-1.50;95.00;;;;;;6224931;23;20014;-84
2021/01/27 06:06:50;;;;;;;6.28;1.20;;;-1.60;95.10;;;;;;6226294;23;20008;-84
2021/01/27 06:09:33;;;;;;;3.33;1.02;;;-1.60;94.70;;;;;;6252488;23;20000;-83
2021/01/27 06:12:05;;;;;;;2.80;0.85;;;-1.60;94.70;;;;;;6224605;23;20004;-84
2021/01/27 06:14:30;;;;;;;2.25;1.10;;;-1.60;94.80;;;;;;6251919;23;20652;-82
2021/01/27 06:16:56;;;;;;;2.67;2.00;;;-1.60;94.80;;;;;;6252116;23;20000;-81
2021/01/27 06:19:26;;;;;;;2.45;1.40;;;-1.60;94.80;;;;;;6252430;23;19996;-84
2021/01/27 06:22:16;;;;;;;5.07;2.00;;;-1.60;94.70;;;;;;6252100;23;20074;-82
2021/01/27 06:25:03;;;;;;;6.80;1.27;;;-1.60;94.70;;;;;;6253104;23;20035;-83
2021/01/27 06:27:43;;;;;;;3.20;1.10;;;-1.60;94.40;;;;;;6227646;23;20040;-83
2021/01/27 06:30:36;;;;;;;1.42;0.90;;;-1.60;94.30;;;;;;6253014;23;20004;-83
2021/01/27 06:33:24;;;;;;;1.85;1.08;;;-1.60;94.10;;;;;;6223748;23;20039;-85
2021/01/27 06:35:56;;;;;;;1.05;0.93;;;-1.50;94.10;;;;;;6184031;23;20011;-81
2021/01/27 06:38:29;;;;;;;3.85;1.08;;;-1.50;94.10;;;;;;6262694;23;20004;-84
2021/01/27 06:41:13;;;;;;;3.63;1.10;;;-1.50;94.30;;;;;;6227571;23;20030;-83
2021/01/27 06:43:49;;;;;;;1.70;1.10;;;;;;;;;;6225715;23;20095;-83
2021/01/27 06:46:31;;;;;;;1.50;0.90;;;-1.40;99.90;;;;;;6223877;23;20015;-83
2021/01/27 06:49:24;;;;;;;4.95;1.20;;;-1.40;93.60;;;;;;6219367;23;20015;-85
2021/01/27 06:52:00;;;;;;;4.70;1.40;;;-1.40;93.70;;;;;;6251336;23;19996;-83
2021/01/27 06:54:57;;;;;;;2.30;1.15;;;-1.40;93.50;;;;;;6250821;23;20396;-83
2021/01/27 06:57:27;;;;;;;2.17;1.00;;;-1.30;93.50;;;;;;6225060;23;20301;-81
2021/01/27 07:00:27;;;;;;;1.77;1.20;;;-1.40;93.30;;;;;;6227249;23;20003;-83
2021/01/27 07:03:23;;;;;;;3.88;1.10;;;-1.30;93.10;;;;;;6230850;23;20063;-83
2021/01/27 07:08:36;;;;;;;3.65;1.40;;;-1.30;92.50;;;;;;6238931;22;20016;-78
2021/01/27 07:11:07;;;;;;;7.97;1.48;;;-1.30;92.00;;;;;;6265911;23;20004;-81
2021/01/27 07:13:41;;;;;;;0.98;0.82;;;-1.30;91.90;;;;;;6265433;22;20011;-79
2021/01/27 07:16:55;;;;;;;4.22;1.25;;;-1.20;91.80;;;;;;6228936;23;20030;-80
2021/01/27 07:19:28;;;;;;;4.28;1.13;;;-1.20;91.60;;;;;;6170912;23;20001;-82
2021/01/27 07:22:10;;;;;;;4.10;1.73;;;-1.10;91.30;;;;;;6252639;23;20181;-81
2021/01/27 07:24:39;;;;;;;3.58;1.35;;;;;;;;;;6255170;23;20095;-82
2021/01/27 07:27:19;;;;;;;5.38;1.77;;;-1.00;90.40;;;;;;6253685;23;20369;-82
2021/01/27 07:30:01;;;;;;;5.00;1.10;;;-1.00;90.60;;;;;;6253524;23;20004;-81
2021/01/27 07:32:30;;;;;;;2.35;1.23;;;-0.90;90.40;;;;;;6226878;23;20003;-81
2021/01/27 07:35:19;;;;;;;3.05;1.33;;;-0.90;90.40;;;;;;6226321;23;20007;-79
2021/01/27 07:37:59;;;;;;;7.75;1.58;;;-0.80;90.20;;;;;;6237394;23;20000;-78
2021/01/27 07:40:35;;;;;;;5.50;1.98;;;-0.70;90.00;;;;;;6226195;23;20008;-78
2021/01/27 07:43:14;;;;;;;6.05;1.35;;;-0.70;88.90;;;;;;6253900;23;20019;-78
2021/01/27 07:45:44;;;;;;;7.13;1.70;;;-0.60;89.00;;;;;;6254480;23;20004;-79
2021/01/27 07:48:41;;;;;;;3.78;1.63;;;-0.60;87.70;;;;;;6227161;23;20328;-79
2021/01/27 07:51:18;;;;;;;4.03;1.17;;;-0.60;86.60;;;;;;6253086;23;19996;-80
2021/01/27 07:53:57;;;;;;;4.13;1.30;;;-0.60;87.30;;;;;;6230724;23;20004;-79
2021/01/27 07:56:41;;;;;;;2.47;1.20;;;-0.50;87.10;;;;;;6260252;23;19996;-79
2021/01/27 07:59:39;;;;;;;2.75;1.33;;;-0.40;87.40;;;;;;6258295;23;20000;-79
2021/01/27 08:02:12;;;;;;;6.50;1.33;;;-0.40;85.40;;;;;;6250575;22;20008;-78
2021/01/27 08:04:45;;;;;;;4.53;1.38;;;-0.40;85.40;;;;;;6258233;23;20035;-81
2021/01/27 08:07:34;;;;;;;2.17;1.02;;;-0.40;85.10;;;;;;6230772;23;20031;-79
2021/01/27 08:10:17;;;;;;;1.35;0.98;;;-0.40;84.90;;;;;;6257131;23;20008;-82
2021/01/27 08:12:54;;;;;;;3.17;0.98;;;-0.40;84.50;;;;;;6251918;23;20332;-80
2021/01/27 08:15:25;;;;;;;5.00;1.45;;;-0.40;84.60;;;;;;6250534;23;20072;-80
2021/01/27 08:17:54;;;;;;;2.20;1.35;;;-0.40;83.90;;;;;;6251328;23;20004;-79
2021/01/27 08:20:26;;;;;;;4.85;1.23;;;-0.20;85.10;;;;;;6225168;23;20255;-78
2021/01/27 08:22:55;;;;;;;3.63;1.20;;;-0.10;85.30;;;;;;6251443;23;20016;-81
2021/01/27 08:25:51;;;;;;;3.40;1.35;;;0.10;84.70;;;;;;6253341;23;20000;-80
2021/01/27 08:28:35;;;;;;;7.80;1.25;;;0.20;83.50;;;;;;6224338;23;20008;-78
2021/01/27 08:31:07;;;;;;;4.57;1.20;;;0.40;83.20;;;;;;6223573;23;20085;-78
2021/01/27 08:33:49;;;;;;;8.30;1.80;;;0.50;82.90;;;;;;6251298;23;19996;-79
2021/01/27 08:36:29;;;;;;;4.78;1.23;;;0.60;82.90;;;;;;6251805;23;20003;-78
2021/01/27 08:38:58;;;;;;;3.05;1.23;;;0.80;82.00;;;;;;6224799;23;20081;-80
2021/01/27 08:41:39;;;;;;;2.78;0.85;;;0.90;80.40;;;;;;6253365;23;20007;-79
2021/01/27 08:44:05;;;;;;;7.00;1.23;;;1.10;81.70;;;;;;6224392;23;19996;-79
2021/01/27 08:46:34;;;;;;;6.70;1.70;;;1.40;80.50;;;;;;6250839;23;20031;-79
2021/01/27 08:49:01;;;;;;;7.90;1.67;;;;;;;;;;6250204;23;20004;-79
2021/01/27 08:51:41;;;;;;;6.25;2.05;;;1.60;75.70;;;;;;6251131;23;20035;-79
2021/01/27 08:54:27;;;;;;;7.72;2.60;;;1.50;75.60;;;;;;6251070;23;20012;-79
2021/01/27 08:57:17;;;;;;;11.20;2.13;;;1.40;75.70;;;;;;6224771;23;20032;-79
2021/01/27 08:59:59;;;;;;;4.43;1.92;;;1.40;77.00;;;;;;6252535;23;20004;-80
2021/01/27 09:02:43;;;;;;;4.82;1.60;;;1.50;77.50;;;;;;6251504;23;20005;-79
2021/01/27 09:05:24;;;;;;;6.05;1.55;;;1.50;77.40;;;;;;6252982;23;20379;-79
2021/01/27 09:08:00;;;;;;;5.78;1.77;;;1.70;77.60;;;;;;6250948;23;20050;-78
2021/01/27 09:10:31;;;;;;;8.80;1.90;;;1.90;77.60;;;;;;6250463;23;20075;-78
2021/01/27 09:12:58;;;;;;;3.60;1.58;;;2.20;76.40;;;;;;6224529;23;20051;-79
2021/01/27 09:15:23;;;;;;;4.25;1.45;;;2.40;75.80;;;;;;6225646;23;20011;-79
2021/01/27 09:17:50;;;;;;;5.38;1.80;;;2.50;74.50;;;;;;6254447;23;20000;-78
2021/01/27 09:20:24;;;;;;;6.22;1.77;;;2.50;74.30;;;;;;6254832;23;20028;-79
2021/01/27 09:22:59;;;;;;;2.15;1.08;;;2.40;73.90;;;;;;6255641;23;20057;-77
2021/01/27 09:25:26;;;;;;;2.05;1.20;;;2.30;73.90;;;;;;6255355;23;20004;-79
2021/01/27 09:28:09;;;;;;;2.42;1.23;;;2.40;74.40;;;;;;6225548;23;20042;-79
2021/01/27 09:30:35;;;;;;;4.03;1.45;;;2.60;74.40;;;;;;6226845;23;20000;-78
2021/01/27 09:33:16;;;;;;;8.57;2.33;;;2.60;73.60;;;;;;6252607;23;20456;-79
2021/01/27 09:35:44;;;;;;;7.57;1.50;;;2.60;72.10;;;;;;6253784;23;20057;-79
2021/01/27 09:38:18;;;;;;;5.20;1.52;;;2.60;72.80;;;;;;6253855;23;20028;-78
2021/01/27 09:40:53;;;;;;;8.27;1.83;;;2.50;73.00;;;;;;6253941;23;20004;-79
2021/01/27 09:43:22;;;;;;;2.20;1.35;;;2.40;72.00;;;;;;6248530;23;20009;-77
2021/01/27 09:45:50;;;;;;;5.28;1.95;;;2.50;73.80;;;;;;6224945;23;20374;-78
2021/01/27 09:48:19;;;;;;;10.90;1.83;;;2.70;73.20;;;;;;6253702;23;20340;-77
2021/01/27 09:50:59;;;;;;;3.40;1.38;;;3.00;72.70;;;;;;6251718;23;19996;-77
2021/01/27 09:53:33;;;;;;;5.35;1.27;;;3.20;72.20;;;;;;6247115;23;20055;-77
2021/01/27 09:56:00;;;;;;;1.92;1.10;;;3.40;70.70;;;;;;6255537;23;20056;-77
2021/01/27 09:58:27;;;;;;;3.08;1.60;;;3.60;70.90;;;;;;6268222;23;20004;-78
2021/01/27 10:01:00;;;;;;;2.60;1.40;;;3.70;68.80;;;;;;6263673;23;20020;-77
2021/01/27 10:03:25;;;;;;;2.47;1.45;;;3.80;69.00;;;;;;6264324;23;20497;-78
2021/01/27 10:05:51;;;;;;;3.20;1.42;;;3.90;69.70;;;;;;6267123;23;20059;-78
2021/01/27 10:08:28;;;;;;;4.50;1.70;;;4.10;68.30;;;;;;6266043;23;20019;-78
2021/01/27 10:11:29;;;;;;;4.68;1.60;;;4.30;68.60;;;;;;6227016;23;20000;-79
2021/01/27 10:14:04;;;;;;;2.95;1.63;;;4.30;66.30;;;;;;6224196;23;20011;-78
2021/01/27 10:16:31;;;;;;;7.82;1.98;;;4.20;67.10;;;;;;6225262;23;20179;-78
2021/01/27 10:19:03;;;;;;;7.25;2.17;;;4.20;66.90;;;;;;6252279;23;20069;-78
2021/01/27 10:21:30;;;;;;;8.70;2.08;;;3.90;66.50;;;;;;6226574;23;20182;-79
2021/01/27 10:23:55;;;;;;;5.72;1.85;;;3.80;67.20;;;;;;6226215;23;20058;-79
2021/01/27 10:26:36;;;;;;;7.45;1.73;;;3.60;67.60;;;;;;6222795;23;20020;-77
2021/01/27 10:29:11;;;;;;;5.03;1.75;;;3.70;67.70;;;;;;6251160;23;20054;-78
2021/01/27 10:31:38;;;;;;;3.47;1.85;;;3.80;68.30;;;;;;6226059;23;20027;-77
2021/01/27 10:34:04;;;;;;;5.47;1.70;;;3.80;68.60;;;;;;6227799;23;20001;-78
2021/01/27 10:36:39;;;;;;;5.07;1.70;;;3.90;67.90;;;;;;6251711;23;19997;-77
2021/01/27 10:39:25;;;;;;;3.60;1.42;;;3.90;68.10;;;;;;6254095;23;20011;-78
2021/01/27 10:42:14;;;;;;;3.78;1.55;;;4.10;68.40;;;;;;6249939;23;20222;-77
2021/01/27 10:44:41;;;;;;;8.82;2.33;;;4.40;69.10;;;;;;6248578;23;20051;-78
2021/01/27 10:47:18;;;;;;;4.35;1.70;;;4.70;65.40;;;;;;6220871;23;20014;-77
2021/01/27 10:49:47;;;;;;;5.47;1.65;;;4.90;71.90;;;;;;6247717;23;20432;-77
2021/01/27 10:52:33;;;;;;;6.45;1.45;;;;;;;;;;6250322;23;20336;-78
2021/01/27 10:55:07;;;;;;;5.18;1.85;;;4.50;61.80;;;;;;6258930;23;20000;-77
2021/01/27 10:57:32;;;;;;;5.00;1.60;;;4.30;61.70;;;;;;6257400;23;19997;-78
2021/01/27 10:59:58;;;;;;;3.22;1.00;;;4.20;60.90;;;;;;6259174;23;20027;-78
2021/01/27 11:02:23;;;;;;;3.90;1.90;;;3.80;61.00;;;;;;6256723;23;20004;-78
2021/01/27 11:04:49;;;;;;;2.47;1.23;;;3.80;63.80;;;;;;6253611;23;20004;-78
2021/01/27 11:07:16;;;;;;;2.90;1.13;;;3.80;63.20;;;;;;6250306;23;20004;-78
2021/01/27 11:09:44;;;;;;;2.85;1.25;;;3.90;63.70;;;;;;6252628;23;20034;-79
2021/01/27 11:12:10;;;;;;;1.83;0.80;;;4.00;65.00;;;;;;6252507;23;20004;-79
2021/01/27 11:14:35;;;;;;;1.98;0.90;;;4.20;67.60;;;;;;6226554;23;20013;-79
2021/01/27 11:17:01;;;;;;;2.28;0.80;;;4.20;63.20;;;;;;6252729;23;20027;-79
2021/01/27 11:19:30;;;;;;;2.67;1.00;;;4.00;59.80;;;;;;6252250;23;20004;-78
2021/01/27 11:21:55;;;;;;;4.00;0.80;;;4.10;72.30;;;;;;6252080;23;20424;-78
2021/01/27 11:24:21;;;;;;;2.45;0.60;;;4.10;64.90;;;;;;6251837;23;20058;-79
2021/01/27 11:26:46;;;;;;;2.17;1.27;;;4.00;60.60;;;;;;6225282;23;20011;-77
2021/01/27 11:29:12;;;;;;;2.35;1.20;;;4.00;70.50;;;;;;6227160;23;20023;-78
2021/01/27 11:31:38;;;;;;;3.53;0.98;;;4.00;76.10;;;;;;6251634;23;20008;-79
2021/01/27 11:34:04;;;;;;;3.95;1.10;;;3.70;78.90;;;;;;6253428;23;20000;-79
2021/01/27 11:36:29;;;;;;;2.90;1.02;;;3.40;81.30;;;;;;6255500;23;19996;-78
2021/01/27 11:38:55;;;;;;;3.88;1.17;;;3.20;84.60;;;;;;6252811;23;20011;-78
2021/01/27 11:41:21;;;;;;;2.35;1.08;;;3.30;84.60;;;;;;6250207;23;20004;-78
2021/01/27 11:43:47;;;;;;;3.92;1.02;;;3.40;82.80;;;;;;6248856;23;20000;-78
2021/01/27 11:46:16;;;;;;;2.85;0.95;;;3.00;80.10;;;;;;6224149;23;20031;-79
2021/01/27 11:48:43;;;;;;;3.55;1.35;;;2.80;77.90;;;;;;6224122;23;20008;-78
2021/01/27 11:51:09;;;;;;;3.85;1.70;;;2.60;83.40;;;;;;6247914;23;19996;-78
2021/01/27 11:53:36;;;;;;;2.97;1.60;;;2.20;93.20;;;;;;6220218;23;20000;-77
2021/01/27 11:56:02;;;;;;;4.90;1.92;;;2.10;95.60;;;;;;6250063;23;20007;-78
2021/01/27 11:58:30;;;;;;;2.58;1.58;;;2.20;98.50;;;;;;6221784;23;20007;-78
2021/01/27 12:00:56;;;;;;;5.07;1.48;;;2.60;76.50;;;;;;6249670;23;20007;-78
2021/01/27 12:03:22;;;;;;;6.72;1.90;;;2.70;76.20;;;;;;6249044;23;20008;-78
2021/01/27 12:05:48;;;;;;;3.20;1.67;;;2.50;92.80;;;;;;6222905;23;20050;-78
2021/01/27 12:08:17;;;;;;;3.22;2.00;;;2.50;94.60;;;;;;6248679;23;20008;-77
2021/01/27 12:10:45;;;;;;;6.82;1.35;;;2.30;94.50;;;;;;6246736;23;20039;-77
2021/01/27 12:13:11;;;;;;;4.07;2.50;;;2.20;96.30;;;;;;6247297;23;20050;-77
2021/01/27 12:15:37;;;;;;;3.38;1.52;;;2.20;87.70;;;;;;6247314;23;20007;-78
2021/01/27 12:18:04;;;;;;;4.25;1.85;;;2.10;97.40;;;;;;6249806;23;19996;-78
2021/01/27 12:20:30;;;;;;;2.70;2.20;;;2.00;99.90;;;;;;6249408;23;20340;-78
2021/01/27 12:22:56;;;;;;;5.22;2.15;;;1.90;96.70;;;;;;6249489;23;20003;-78
2021/01/27 12:25:22;;;;;;;1.58;1.33;;;1.90;99.90;;;;;;6252635;23;20000;-78
2021/01/27 12:27:47;;;;;;;4.60;2.03;;;1.70;92.80;;;;;;6253593;23;20461;-77
2021/01/27 12:30:14;;;;;;;3.33;1.92;;;1.90;97.90;;;;;;6249095;23;20034;-77
2021/01/27 12:32:41;;;;;;;3.72;1.75;;;1.90;99.90;;;;;;6222553;23;20007;-77
2021/01/27 12:35:08;;;;;;;4.28;1.95;;;2.10;95.30;;;;;;6250009;23;20373;-78
2021/01/27 12:37:33;;;;;;;3.10;1.65;;;1.90;98.80;;;;;;6228655;23;20415;-78
2021/01/27 12:39:59;;;;;;;2.97;1.30;;;1.80;99.90;;;;;;6257306;23;20101;-78
2021/01/27 12:42:25;;;;;;;2.63;1.50;;;1.90;89.40;;;;;;6261111;23;20000;-78
2021/01/27 12:44:51;;;;;;;5.03;1.60;;;1.70;98.10;;;;;;6236044;23;20008;-79
2021/01/27 12:47:22;;;;;;;3.47;1.00;;;1.40;99.90;;;;;;6262524;23;20022;-78
2021/01/27 12:49:48;;;;;;;2.08;1.08;;;1.10;97.80;;;;;;6265450;23;20000;-77
2021/01/27 12:52:13;;;;;;;2.55;1.48;;;1.30;93.00;;;;;;6251966;23;20000;-77
2021/01/27 12:54:39;;;;;;;1.75;1.30;;;1.30;99.90;;;;;;6248937;23;20004;-79
2021/01/27 12:57:04;;;;;;;2.22;1.30;;;1.20;99.90;;;;;;6249178;23;19996;-79
2021/01/27 12:59:30;;;;;;;4.13;1.52;;;1.00;99.90;;;;;;6249906;23;20000;-78
2021/01/27 13:01:56;;;;;;;1.92;1.30;;;1.20;94.10;;;;;;6252057;23;20020;-78
2021/01/27 13:04:22;;;;;;;2.88;1.52;;;1.40;95.20;;;;;;6252666;23;20004;-79
2021/01/27 13:06:47;;;;;;;2.58;1.42;;;1.20;99.90;;;;;;6248042;23;20000;-79
2021/01/27 13:11:51;;;;;;;2.00;1.40;;;1.20;99.90;;;;;;6247206;22;20027;-82
2021/01/27 13:14:19;;;;;;;3.88;1.17;;;1.30;99.90;;;;;;6224617;23;20004;-81
2021/01/27 13:16:44;;;;;;;2.50;1.27;;;1.10;99.90;;;;;;6222648;23;20299;-79
2021/01/27 13:19:10;;;;;;;2.83;1.13;;;1.30;96.10;;;;;;6251420;23;20011;-81
2021/01/27 13:21:36;;;;;;;3.63;1.80;;;;;;;;;;6224514;23;20008;-80
2021/01/27 13:24:02;;;;;;;4.25;1.02;;;1.20;99.90;;;;;;6251515;23;20031;-81
2021/01/27 13:26:27;;;;;;;2.15;1.10;;;1.20;99.90;;;;;;6252091;23;20091;-80
2021/01/27 13:28:53;;;;;;;2.97;1.10;;;1.40;99.90;;;;;;6224763;23;20012;-81
2021/01/27 13:31:19;;;;;;;1.42;1.17;;;1.30;99.80;;;;;;6224612;23;20269;-82
2021/01/27 13:33:44;;;;;;;4.65;1.40;;;1.40;99.80;;;;;;6251561;23;20007;-80
2021/01/27 13:36:10;;;;;;;6.13;1.98;;;1.60;98.10;;;;;;6258368;23;20026;-80
2021/01/27 13:38:36;;;;;;;3.75;1.88;;;1.90;98.90;;;;;;6254120;23;20007;-81